Time;durP1;ratioP1;P1;durP2;ratioP2;P2;SDS_P1;SDS_P2;PMS_P1;PMS_P2;Temp;Humidity;BMP_temperature;BMP_pressure;BME280_temperature;BME280_humidity;BME280_pressure;Samples;Min_cycle;Max_cycle;Signal;HPM_P1;HPM_P2
2022/04/08 00:01:34;;;;;;;17.63;5.00;;;;;;;9.48;62.16;98700.77;123312;1102;104455;-78
2022/04/08 00:04:06;;;;;;;17.00;4.60;;;;;;;9.47;62.45;98702.51;123261;1102;104467;-78
2022/04/08 00:06:38;;;;;;;16.77;4.70;;;;;;;9.47;62.45;98709.47;123181;1099;104245;-80
2022/04/08 00:09:10;;;;;;;20.13;4.93;;;;;;;9.49;62.27;98699.88;123103;1099;104284;-79
2022/04/08 00:11:42;;;;;;;15.55;4.65;;;;;;;9.49;63.09;98698.16;123434;1102;104339;-79
2022/04/08 00:14:15;;;;;;;19.13;4.50;;;;;;;9.52;62.43;98692.95;123190;1099;104343;-79
2022/04/08 00:16:47;;;;;;;16.70;4.77;;;;;;;9.52;62.95;98692.05;123303;1099;104383;-78
2022/04/08 00:19:19;;;;;;;20.43;4.40;;;;;;;9.53;62.37;98691.20;123172;1099;104805;-79
2022/04/08 00:21:52;;;;;;;22.37;4.40;;;;;;;9.56;63.01;98690.37;123174;1099;104727;-79
2022/04/08 00:24:25;;;;;;;23.80;4.47;;;;;;;9.56;62.44;98693.86;123231;1099;104265;-79
2022/04/08 00:26:58;;;;;;;19.20;4.83;;;;;;;9.58;62.40;98686.02;123195;1099;104622;-79
2022/04/08 00:29:31;;;;;;;17.97;4.77;;;;;;;9.57;62.61;98690.39;123223;1100;104367;-79
2022/04/08 00:32:03;;;;;;;16.85;4.53;;;;;;;9.57;62.36;98682.53;123305;1100;104313;-80
2022/04/08 00:34:37;;;;;;;19.50;4.20;;;;;;;9.55;63.13;98681.61;123166;1099;104354;-80
2022/04/08 00:37:11;;;;;;;19.23;4.80;;;;;;;9.56;62.35;98683.38;123506;1099;104242;-80
2022/04/08 00:39:43;;;;;;;17.97;4.83;;;;;;;9.56;63.14;98678.15;123440;1099;104337;-79
2022/04/08 00:42:16;;;;;;;22.20;4.55;;;;;;;9.56;63.05;98678.15;123392;1099;104344;-80
2022/04/08 00:44:49;;;;;;;14.67;4.90;;;;;;;9.55;63.03;98671.14;123490;1099;104233;-79
2022/04/08 00:47:21;;;;;;;18.07;4.90;;;;;;;9.50;63.01;98665.86;123353;1099;104297;-80
2022/04/08 00:49:54;;;;;;;18.17;4.57;;;;;;;9.44;62.47;98673.67;123574;1099;104297;-79
2022/04/08 00:52:27;;;;;;;18.60;4.73;;;;;;;9.42;63.28;98661.42;123447;1099;104946;-79
2022/04/08 00:54:59;;;;;;;22.80;6.40;;;;;;;9.40;62.51;98655.30;123525;1099;104258;-80
2022/04/08 00:57:31;;;;;;;20.50;6.60;;;;;;;9.37;62.67;98660.50;123535;1099;104259;-79
2022/04/08 01:00:07;;;;;;;18.80;6.10;;;;;;;9.37;62.93;98655.27;123425;1099;104347;-78
2022/04/08 01:02:39;;;;;;;19.23;6.50;;;;;;;9.37;63.25;98647.41;123721;1099;104271;-79
2022/04/08 01:05:11;;;;;;;22.70;6.63;;;;;;;9.38;63.36;98660.52;123579;1099;104341;-79
2022/04/08 01:07:46;;;;;;;22.75;8.00;;;;;;;9.36;63.03;98664.84;123596;1099;104389;-79
2022/04/08 01:10:18;;;;;;;26.37;8.80;;;;;;;9.35;63.48;98668.34;123240;1099;104293;-80
2022/04/08 01:12:50;;;;;;;21.77;7.90;;;;;;;9.33;62.71;98664.80;123492;1099;104268;-80
2022/04/08 01:15:25;;;;;;;25.43;8.37;;;;;;;9.27;63.01;98664.73;123460;1099;104248;-79
2022/04/08 01:17:57;;;;;;;23.90;8.80;;;;;;;9.22;62.85;98658.58;123350;1099;104364;-79
2022/04/08 01:20:30;;;;;;;24.83;8.30;;;;;;;9.14;63.00;98661.10;123411;1099;104364;-80
2022/04/08 01:23:03;;;;;;;26.82;8.53;;;;;;;9.08;63.07;98661.02;123639;1099;104341;-79
2022/04/08 01:25:36;;;;;;;26.53;8.53;;;;;;;9.07;63.48;98665.39;123567;1099;104402;-79
2022/04/08 01:28:08;;;;;;;26.55;8.20;;;;;;;9.03;63.13;98666.20;123699;1099;104267;-78
2022/04/08 01:30:42;;;;;;;24.40;8.20;;;;;;;9.00;63.06;98669.64;123604;1099;104316;-80
2022/04/08 01:33:14;;;;;;;22.97;8.03;;;;;;;8.96;63.21;98666.97;123432;1099;104290;-80
2022/04/08 01:35:46;;;;;;;23.40;7.30;;;;;;;8.91;63.53;98664.33;123613;1099;104248;-80
2022/04/08 01:38:19;;;;;;;22.70;7.20;;;;;;;8.86;63.13;98662.50;123510;1099;104344;-79
2022/04/08 01:40:50;;;;;;;21.80;7.07;;;;;;;8.81;63.46;98665.05;123591;1099;105392;-79
2022/04/08 01:43:22;;;;;;;21.87;6.90;;;;;;;8.78;63.50;98662.39;123568;1099;104431;-79
2022/04/08 01:45:53;;;;;;;22.37;7.53;;;;;;;8.77;63.30;98658.02;123323;1099;104470;-79
2022/04/08 01:48:25;;;;;;;21.07;7.37;;;;;;;8.73;63.43;98653.63;123250;1099;104230;-79
2022/04/08 01:50:57;;;;;;;27.03;7.93;;;;;;;8.70;63.65;98641.38;123348;1099;104297;-79
2022/04/08 01:53:32;;;;;;;25.43;7.73;;;;;;;8.72;63.24;98639.64;123447;1102;104419;-80
2022/04/08 01:56:04;;;;;;;24.67;7.70;;;;;;;8.71;63.34;98637.91;123401;1099;104445;-78
2022/04/08 01:58:37;;;;;;;23.43;7.17;;;;;;;8.73;63.25;98636.19;123337;1099;104808;-79
2022/04/08 02:01:08;;;;;;;23.33;7.10;;;;;;;8.75;63.23;98641.44;123722;1099;104338;-80
2022/04/08 02:03:42;;;;;;;22.17;6.40;;;;;;;8.70;63.42;98641.38;123485;1099;104421;-78
2022/04/08 02:06:13;;;;;;;22.30;7.35;;;;;;;8.63;64.01;98637.80;123255;1099;104428;-80
2022/04/08 02:08:45;;;;;;;25.97;7.10;;;;;;;8.58;63.45;98643.81;123380;1099;104380;-79
2022/04/08 02:11:18;;;;;;;18.57;6.50;;;;;;;8.54;63.71;98642.91;123417;1099;104543;-80
2022/04/08 02:13:51;;;;;;;24.73;7.17;;;;;;;8.46;63.66;98641.89;123546;1099;104423;-79
2022/04/08 02:16:23;;;;;;;27.23;7.97;;;;;;;8.42;64.10;98640.08;123435;1099;104491;-80
2022/04/08 02:18:54;;;;;;;27.70;7.10;;;;;;;8.36;63.61;98635.63;124012;1099;104826;-79
2022/04/08 02:21:28;;;;;;;17.93;6.23;;;;;;;8.31;63.65;98642.53;123488;1099;104576;-78
2022/04/08 02:24:00;;;;;;;26.68;7.20;;;;;;;8.25;63.77;98637.22;123202;1099;104363;-78
2022/04/08 02:26:32;;;;;;;23.30;6.73;;;;;;;8.21;64.25;98649.36;123695;1099;104268;-80
2022/04/08 02:29:04;;;;;;;23.50;6.77;;;;;;;8.19;64.17;98647.57;123710;1099;104232;-78
2022/04/08 02:31:36;;;;;;;19.77;6.80;;;;;;;8.17;64.38;98659.74;123596;1097;104337;-79
2022/04/08 02:34:09;;;;;;;25.13;7.17;;;;;;;8.14;64.25;98654.47;123709;1097;104233;-80
2022/04/08 02:36:42;;;;;;;24.20;6.93;;;;;;;8.13;64.50;98647.47;123566;1099;104466;-80
2022/04/08 02:39:15;;;;;;;22.70;6.70;;;;;;;8.17;64.57;98644.94;123554;1099;104334;-79
2022/04/08 02:41:47;;;;;;;19.70;6.80;;;;;;;8.22;64.43;98651.10;123545;1099;104236;-79
2022/04/08 02:44:20;;;;;;;21.07;6.53;;;;;;;8.26;64.26;98654.66;123501;1099;104287;-80
2022/04/08 02:47:01;;;;;;;20.00;7.00;;;;;;;8.28;64.46;98645.97;123608;1099;104317;-79
2022/04/08 02:49:33;;;;;;;23.97;7.33;;;;;;;8.28;64.51;98656.42;123695;1099;104290;-78
2022/04/08 02:52:08;;;;;;;20.33;7.30;;;;;;;8.30;64.32;98655.58;123592;1099;104332;-78
2022/04/08 02:54:41;;;;;;;23.73;6.73;;;;;;;8.32;64.37;98654.75;123574;1099;104667;-79
2022/04/08 02:57:14;;;;;;;24.87;7.37;;;;;;;8.32;64.88;98643.41;123918;1099;104303;-79
2022/04/08 02:59:47;;;;;;;22.93;6.80;;;;;;;8.34;64.54;98641.72;123480;1099;104214;-80
2022/04/08 03:02:20;;;;;;;21.20;6.40;;;;;;;8.34;64.27;98644.33;123560;1099;104703;-80
2022/04/08 03:04:53;;;;;;;23.03;7.03;;;;;;;8.33;64.37;98642.56;123629;1097;104361;-79
2022/04/08 03:07:27;;;;;;;27.62;7.00;;;;;;;8.32;64.77;98646.92;123604;1099;104331;-80
2022/04/08 03:09:59;;;;;;;22.70;6.40;;;;;;;8.25;64.98;98640.70;123644;1099;104300;-80
2022/04/08 03:12:32;;;;;;;23.67;7.30;;;;;;;8.14;64.29;98644.02;123428;1098;104342;-80
2022/04/08 03:15:04;;;;;;;23.87;7.57;;;;;;;8.03;64.92;98644.72;123621;1099;104338;-80
2022/04/08 03:17:37;;;;;;;21.93;7.00;;;;;;;7.97;64.93;98641.13;123571;1099;104705;-78
2022/04/08 03:20:11;;;;;;;23.45;7.55;;;;;;;7.92;64.72;98644.54;123548;1099;104338;-79
2022/04/08 03:22:42;;;;;;;18.27;6.67;;;;;;;7.90;65.06;98651.48;123665;1099;104355;-79
2022/04/08 03:25:15;;;;;;;23.63;7.50;;;;;;;7.86;65.15;98654.88;123508;1099;104617;-80
2022/04/08 03:27:48;;;;;;;22.37;6.90;;;;;;;7.82;65.25;98668.76;123422;1099;104364;-80
2022/04/08 03:30:20;;;;;;;21.02;6.72;;;;;;;7.79;65.34;98671.31;123702;1099;104775;-80
2022/04/08 03:32:54;;;;;;;23.30;6.83;;;;;;;7.70;65.38;98685.08;123618;1099;104342;-79
2022/04/08 03:35:27;;;;;;;22.80;6.97;;;;;;;7.59;65.73;98694.45;123800;1099;104261;-79
2022/04/08 03:37:59;;;;;;;22.97;6.80;;;;;;;7.49;65.35;98695.98;123813;1099;104336;-78
2022/04/08 03:40:32;;;;;;;17.27;6.50;;;;;;;7.40;65.72;98707.98;123702;1099;104332;-79
2022/04/08 03:43:05;;;;;;;23.30;7.57;;;;;;;7.35;65.67;98718.33;123830;1099;104345;-79
2022/04/08 03:45:37;;;;;;;21.85;7.65;;;;;;;7.26;65.91;98732.09;123588;1099;104248;-79
2022/04/08 03:48:10;;;;;;;24.13;7.17;;;;;;;7.19;65.54;98731.06;123676;1099;104347;-80
2022/04/08 03:50:45;;;;;;;21.90;7.43;;;;;;;7.13;65.93;98720.50;123658;1099;104358;-80
2022/04/08 03:53:16;;;;;;;19.98;7.20;;;;;;;7.11;66.07;98709.16;124093;1099;105683;-80
2022/04/08 03:55:48;;;;;;;22.95;7.45;;;;;;;7.16;66.24;98710.12;123685;1099;104345;-80
2022/04/08 03:58:19;;;;;;;24.17;7.20;;;;;;;7.24;66.08;98704.20;123718;1099;104265;-79
2022/04/08 04:00:53;;;;;;;21.70;7.30;;;;;;;7.28;66.42;98706.89;123942;1099;104229;-79
2022/04/08 04:03:24;;;;;;;22.83;6.70;;;;;;;7.29;66.46;98718.20;123880;1099;104249;-80
2022/04/08 04:05:56;;;;;;;25.17;8.03;;;;;;;7.29;66.12;98724.33;123902;1099;104456;-80
2022/04/08 04:08:28;;;;;;;23.57;7.23;;;;;;;7.27;66.45;98722.52;123662;1099;104328;-81
2022/04/08 04:11:01;;;;;;;20.33;7.73;;;;;;;7.25;66.32;98732.92;124193;1099;104245;-79
2022/04/08 04:13:33;;;;;;;21.70;7.50;;;;;;;7.26;66.38;98752.05;123985;1099;104274;-79
2022/04/08 04:16:05;;;;;;;22.10;7.43;;;;;;;7.22;66.76;98768.52;124169;1099;104336;-79
2022/04/08 04:18:38;;;;;;;24.23;8.73;;;;;;;7.14;66.59;98763.12;123374;1099;104479;-79
2022/04/08 04:21:12;;;;;;;23.03;8.27;;;;;;;7.12;66.43;98763.09;123799;1099;104341;-79
2022/04/08 04:23:43;;;;;;;28.02;8.13;;;;;;;7.11;66.49;98763.06;123703;1098;105448;-78
2022/04/08 04:26:16;;;;;;;21.37;7.40;;;;;;;7.14;66.58;98758.78;123857;1099;104354;-79
2022/04/08 04:28:50;;;;;;;23.73;7.53;;;;;;;7.22;66.59;98752.86;123654;1099;104341;-79
2022/04/08 04:31:20;;;;;;;;;;;;;;;7.25;67.22;98751.19;123694;1099;104300;-79
2022/04/08 04:33:53;;;;;;;25.10;6.97;;;;;;;7.27;66.94;98746.00;123615;1099;104357;-79
2022/04/08 04:36:25;;;;;;;22.00;7.70;;;;;;;7.31;66.85;98756.53;123709;1099;104246;-79
2022/04/08 04:39:00;;;;;;;25.43;7.70;;;;;;;7.42;66.97;98767.19;123883;1099;104341;-80
2022/04/08 04:41:33;;;;;;;27.60;7.77;;;;;;;7.50;66.64;98772.57;123829;1098;104344;-80
2022/04/08 04:44:08;;;;;;;20.65;6.80;;;;;;;7.50;66.87;98776.05;123717;1098;104821;-79
2022/04/08 04:46:39;;;;;;;21.30;7.35;;;;;;;7.51;67.08;98769.99;123777;1099;104281;-79
2022/04/08 04:49:11;;;;;;;22.63;7.57;;;;;;;7.52;66.87;98763.03;123962;1098;104364;-79
2022/04/08 04:51:43;;;;;;;23.00;7.27;;;;;;;7.52;66.71;98776.95;123824;1097;104207;-79
2022/04/08 04:54:16;;;;;;;20.73;7.50;;;;;;;7.55;67.04;98790.06;123685;1099;104521;-78
2022/04/08 04:56:49;;;;;;;21.27;7.57;;;;;;;7.55;66.73;98792.67;123846;1099;104669;-79
2022/04/08 04:59:21;;;;;;;21.80;7.67;;;;;;;7.56;67.16;98797.06;123828;1099;104284;-78
2022/04/08 05:01:54;;;;;;;24.20;7.80;;;;;;;7.52;67.07;98787.39;123801;1099;104338;-78
2022/04/08 05:04:25;;;;;;;23.93;6.87;;;;;;;7.54;67.02;98782.20;123812;1099;104361;-78
2022/04/08 05:07:00;;;;;;;20.10;6.80;;;;;;;7.65;67.40;98785.03;123817;1099;104467;-78
2022/04/08 05:09:33;;;;;;;25.43;7.67;;;;;;;7.73;67.17;98773.03;123733;1099;104363;-80
2022/04/08 05:12:07;;;;;;;24.77;7.30;;;;;;;7.79;67.39;98751.36;124279;1099;104267;-79
2022/04/08 05:14:39;;;;;;;26.57;8.17;;;;;;;7.87;66.99;98755.02;123800;1099;104275;-78
2022/04/08 05:17:13;;;;;;;30.07;8.40;;;;;;;7.92;67.02;98754.23;123904;1099;104294;-78
2022/04/08 05:19:44;;;;;;;27.83;9.13;;;;;;;7.94;67.06;98769.06;123892;1098;104274;-80
2022/04/08 05:22:20;;;;;;;26.13;7.90;;;;;;;7.89;67.04;98775.06;123883;1099;104446;-79
2022/04/08 05:24:57;;;;;;;27.30;8.95;;;;;;;7.88;67.13;98783.77;123512;1099;104239;-79
2022/04/08 05:27:38;;;;;;;25.67;8.77;;;;;;;7.91;66.72;98777.70;123733;1099;104354;-80
2022/04/08 05:30:13;;;;;;;25.90;8.10;;;;;;;7.97;66.66;98782.17;123671;1099;104264;-78
2022/04/08 05:32:46;;;;;;;26.40;8.87;;;;;;;8.00;67.05;98780.48;123790;1099;104242;-79
2022/04/08 05:35:21;;;;;;;24.13;8.40;;;;;;;8.01;66.98;98778.75;124643;1098;104182;-78
2022/04/08 05:37:54;;;;;;;23.97;8.80;;;;;;;8.03;66.86;98777.94;123965;1099;104338;-79
2022/04/08 05:40:29;;;;;;;26.90;9.23;;;;;;;8.12;67.02;98776.33;123743;1099;104290;-79
2022/04/08 05:43:02;;;;;;;30.33;9.23;;;;;;;8.11;67.12;98785.91;124182;1098;104351;-78
2022/04/08 05:45:38;;;;;;;33.83;10.10;;;;;;;8.11;67.06;98801.59;124041;1098;104442;-78
2022/04/08 05:48:10;;;;;;;30.73;9.87;;;;;;;8.05;67.19;98797.11;123689;1099;104354;-76
2022/04/08 05:50:45;;;;;;;26.30;9.30;;;;;;;8.04;67.29;98789.25;124044;1099;104287;-77
2022/04/08 05:53:17;;;;;;;31.90;10.15;;;;;;;8.06;67.57;98803.24;124204;1099;104255;-78
2022/04/08 05:55:52;;;;;;;29.83;10.33;;;;;;;8.10;66.73;98798.10;124269;1099;104293;-79
2022/04/08 05:58:25;;;;;;;27.43;9.70;;;;;;;8.15;66.80;98798.19;124069;1099;104255;-77
2022/04/08 06:00:58;;;;;;;27.20;10.00;;;;;;;8.12;67.25;98792.91;125001;1098;104239;-77
2022/04/08 06:03:32;;;;;;;28.30;10.37;;;;;;;8.13;66.71;98794.64;124831;1099;104357;-78
2022/04/08 06:06:08;;;;;;;25.50;10.00;;;;;;;8.17;66.79;98806.92;125162;1099;104259;-80
2022/04/08 06:08:46;;;;;;;31.52;11.28;;;;;;;8.22;66.61;98805.27;125500;1099;104092;-78
2022/04/08 06:11:23;;;;;;;28.73;11.03;;;;;;;8.30;66.81;98804.53;124720;1099;104331;-77
2022/04/08 06:13:57;;;;;;;28.10;10.00;;;;;;;8.35;66.48;98808.09;124166;1098;104337;-77
2022/04/08 06:16:32;;;;;;;32.10;11.03;;;;;;;8.41;66.97;98816.95;124499;1099;104275;-76
2022/04/08 06:19:07;;;;;;;28.00;10.27;;;;;;;8.49;67.20;98824.92;124944;1099;102224;-77
2022/04/08 06:21:41;;;;;;;31.20;11.23;;;;;;;8.58;66.65;98819.85;125050;1099;104305;-77
2022/04/08 06:24:20;;;;;;;29.93;11.30;;;;;;;8.69;67.07;98827.87;124570;1099;104335;-77
2022/04/08 06:26:52;;;;;;;31.10;10.65;;;;;;;8.82;66.70;98836.83;124756;1098;104172;-77
2022/04/08 06:29:26;;;;;;;34.20;12.77;;;;;;;8.97;66.70;98847.50;124049;1099;104246;-79
2022/04/08 06:32:00;;;;;;;38.40;16.90;;;;;;;9.13;67.28;98845.13;124278;1098;104245;-76
2022/04/08 06:34:34;;;;;;;21.73;7.47;;;;;;;9.39;67.01;98834.16;123873;1099;104373;-76
2022/04/08 06:37:08;;;;;;;29.80;8.40;;;;;;;9.59;67.31;98822.20;124549;1099;102926;-78
2022/04/08 06:39:45;;;;;;;22.25;7.50;;;;;;;9.76;67.14;98845.13;124707;1099;104610;-78
2022/04/08 06:42:23;;;;;;;24.10;8.10;;;;;;;9.92;67.25;98849.67;124530;1099;104242;-79
2022/04/08 06:45:02;;;;;;;30.50;8.83;;;;;;;10.11;66.68;98850.75;124675;1099;104300;-78
2022/04/08 06:47:50;;;;;;;25.30;8.53;;;;;;;10.21;66.33;98836.89;124115;1099;104235;-78
2022/04/08 06:50:23;;;;;;;25.97;8.43;;;;;;;10.40;66.96;98839.73;123850;1098;104243;-78
2022/04/08 06:53:00;;;;;;;25.75;7.70;;;;;;;10.63;66.33;98836.44;124707;1099;104165;-76
2022/04/08 06:55:39;;;;;;;22.95;7.85;;;;;;;10.84;66.69;98835.75;124316;1099;104326;-79
2022/04/08 06:58:12;;;;;;;23.83;7.63;;;;;;;11.05;66.36;98838.54;124171;1099;104262;-80
2022/04/08 07:00:46;;;;;;;20.13;7.20;;;;;;;11.23;66.25;98840.39;123999;1099;104338;-79
2022/04/08 07:03:25;;;;;;;24.63;7.83;;;;;;;11.36;66.08;98841.38;124018;1096;104272;-79
2022/04/08 07:06:13;;;;;;;23.73;7.57;;;;;;;11.53;65.99;98848.45;124216;1099;104437;-81
2022/04/08 07:09:24;;;;;;;20.63;6.60;;;;;;;11.73;65.50;98856.44;125157;1099;104328;-82
2022/04/08 07:12:39;;;;;;;21.03;6.80;;;;;;;12.02;65.38;98867.11;125933;1099;104290;-82
2022/04/08 07:15:17;;;;;;;21.05;7.10;;;;;;;12.30;64.45;98873.33;124506;1102;104318;-81
2022/04/08 07:18:02;;;;;;;24.43;7.10;;;;;;;12.51;64.73;98874.24;124821;1099;104229;-81
2022/04/08 07:20:52;;;;;;;19.53;6.53;;;;;;;12.67;64.75;98868.14;124522;1099;104421;-80
2022/04/08 07:23:30;;;;;;;24.07;6.80;;;;;;;12.84;64.25;98865.52;124901;1099;104188;-80
2022/04/08 07:26:14;;;;;;;19.70;5.97;;;;;;;12.95;64.03;98873.42;125025;1099;104255;-81
2022/04/08 07:29:02;;;;;;;19.87;5.87;;;;;;;13.12;63.78;98870.79;125321;1098;104331;-79
2022/04/08 07:31:36;;;;;;;20.33;6.13;;;;;;;13.38;64.04;98867.27;125421;1099;103264;-79
2022/04/08 07:34:26;;;;;;;17.67;6.50;;;;;;;13.53;63.28;98874.27;124643;1099;104329;-78
2022/04/08 07:37:09;;;;;;;19.75;6.20;;;;;;;13.61;62.54;98875.13;124249;1099;104242;-79
2022/04/08 07:39:54;;;;;;;19.10;6.40;;;;;;;13.73;61.45;98882.09;124673;1099;104211;-79
2022/04/08 07:42:36;;;;;;;;;;;;;;;13.81;60.33;98889.11;125412;1099;104242;-79
2022/04/08 07:45:29;;;;;;;20.93;7.03;;;;;;;13.88;61.47;98878.55;124879;1102;102988;-79
2022/04/08 07:48:02;;;;;;;20.17;6.80;;;;;;;13.96;61.16;98880.28;125290;1099;104236;-79
2022/04/08 07:50:39;;;;;;;19.77;6.73;;;;;;;14.12;61.32;98878.45;124960;1099;104169;-79
2022/04/08 07:53:13;;;;;;;24.50;7.80;;;;;;;14.26;61.34;98869.57;124382;1099;104249;-79
2022/04/08 07:55:50;;;;;;;22.02;7.55;;;;;;;14.35;61.42;98882.72;124297;1100;104300;-81
2022/04/08 07:58:34;;;;;;;21.60;7.20;;;;;;;14.42;60.29;98875.67;124720;1102;102359;-82
2022/04/08 08:01:08;;;;;;;22.07;7.70;;;;;;;14.53;60.35;98879.97;124266;1100;104541;-79
2022/04/08 08:04:14;;;;;;;24.73;7.30;;;;;;;14.56;58.42;98877.31;125259;1099;104306;-79
2022/04/08 08:07:05;;;;;;;22.70;7.93;;;;;;;14.59;58.33;98881.71;124865;1102;104341;-82
2022/04/08 08:09:50;;;;;;;22.07;8.50;;;;;;;14.61;58.38;98887.02;124547;1102;104452;-79
2022/04/08 08:15:31;;;;;;;24.33;8.27;;;;;;;14.75;57.93;98895.70;124417;1102;104425;-79
2022/04/08 08:18:05;;;;;;;28.60;8.17;;;;;;;14.89;57.10;98887.69;124078;1101;105168;-79
2022/04/08 08:20:37;;;;;;;23.20;7.60;;;;;;;15.00;57.47;98895.53;124150;1102;109646;-79
2022/04/08 08:23:11;;;;;;;23.13;7.53;;;;;;;15.03;56.38;98899.02;124406;1098;104207;-79
2022/04/08 08:25:44;;;;;;;;;;;;;;;15.08;53.79;98898.98;124752;1099;102957;-77
2022/04/08 08:28:18;;;;;;;25.43;7.43;;;;;;;15.15;56.36;98897.19;124931;1099;104232;-77
2022/04/08 08:30:56;;;;;;;25.13;7.73;;;;;;;15.21;55.98;98900.64;123904;1099;104309;-78
2022/04/08 08:33:37;;;;;;;25.62;8.20;;;;;;;15.35;55.68;98892.59;124725;1099;104248;-78
2022/04/08 08:36:12;;;;;;;23.47;6.93;;;;;;;15.51;56.47;98879.23;124857;1099;104373;-78
2022/04/08 08:38:45;;;;;;;24.83;8.37;;;;;;;15.56;55.77;98878.27;124699;1099;104235;-79
2022/04/08 08:41:20;;;;;;;22.10;6.80;;;;;;;15.63;55.50;98881.75;124035;1098;107111;-77
2022/04/08 08:43:54;;;;;;;25.13;6.33;;;;;;;15.67;54.80;98875.51;123799;1099;104341;-79
2022/04/08 08:46:28;;;;;;;22.87;6.87;;;;;;;15.84;55.50;98871.84;124542;1098;104235;-78
2022/04/08 08:49:07;;;;;;;20.00;7.07;;;;;;;15.91;53.69;98877.05;124366;1099;104214;-77
2022/04/08 08:51:45;;;;;;;17.87;6.47;;;;;;;15.96;53.44;98869.05;123781;1099;119384;-77
2022/04/08 08:54:18;;;;;;;18.37;6.77;;;;;;;16.01;52.96;98856.64;123655;1099;104386;-79
2022/04/08 08:56:57;;;;;;;19.30;7.00;;;;;;;16.15;51.96;98853.81;123689;1099;104290;-79
2022/04/08 08:59:32;;;;;;;19.40;6.87;;;;;;;16.29;53.04;98848.34;124033;1099;104424;-79
2022/04/08 09:02:06;;;;;;;16.97;6.10;;;;;;;16.38;51.87;98849.96;125157;1098;104322;-80
2022/04/08 09:04:50;;;;;;;14.40;6.73;;;;;;;16.34;51.29;98851.78;124899;1098;104185;-79
2022/04/08 09:07:40;;;;;;;20.20;6.25;;;;;;;16.39;50.30;98864.95;124828;1099;104472;-80
2022/04/08 09:10:36;;;;;;;17.65;6.47;;;;;;;16.44;50.74;98850.77;125198;1099;104249;-79
2022/04/08 09:13:24;;;;;;;16.90;6.63;;;;;;;16.48;51.39;98847.16;125519;1097;104258;-78
2022/04/08 09:16:47;;;;;;;21.27;7.03;;;;;;;16.59;50.35;98851.44;125919;1098;104334;-80
2022/04/08 09:19:29;;;;;;;16.05;6.50;;;;;;;16.78;50.95;98849.37;125348;1099;104338;-78
2022/04/08 09:22:36;;;;;;;16.63;6.20;;;;;;;16.88;50.12;98857.17;125696;1099;105570;-79
2022/04/08 09:25:33;;;;;;;18.83;5.90;;;;;;;16.92;48.68;98862.42;126017;1099;104179;-79
2022/04/08 09:28:21;;;;;;;16.17;6.30;;;;;;;17.02;48.95;98858.73;125027;1099;104214;-78
2022/04/08 09:30:56;;;;;;;17.30;6.13;;;;;;;17.03;48.21;98874.61;124844;1099;104316;-78
2022/04/08 09:33:52;;;;;;;15.90;6.63;;;;;;;17.04;47.49;98851.63;125195;1099;118958;-79
2022/04/08 09:36:35;;;;;;;17.00;6.27;;;;;;;17.12;48.23;98848.84;125215;1099;104501;-78
2022/04/08 09:39:15;;;;;;;18.57;6.60;;;;;;;17.18;47.98;98844.30;124700;1099;104155;-78
2022/04/08 09:41:49;;;;;;;17.20;6.27;;;;;;;17.27;47.89;98847.72;124253;1099;104239;-79
2022/04/08 09:44:35;;;;;;;17.47;7.07;;;;;;;17.33;47.43;98850.26;124867;1102;104342;-79
2022/04/08 09:47:18;;;;;;;19.67;6.63;;;;;;;17.39;47.04;98842.16;125255;1102;104281;-78
2022/04/08 09:50:00;;;;;;;;;;;;;;;17.51;46.50;98839.28;124971;1102;104270;-78
2022/04/08 09:52:32;;;;;;;14.30;6.37;;;;;;;17.65;47.25;98812.49;124601;1102;104424;-78
2022/04/08 09:55:10;;;;;;;20.37;6.20;;;;;;;17.72;47.15;98797.35;123768;1099;104363;-79
2022/04/08 09:57:55;;;;;;;18.07;7.30;;;;;;;17.74;46.92;98814.96;123909;1099;104360;-78
2022/04/08 10:00:28;;;;;;;19.50;6.87;;;;;;;17.77;46.48;98822.86;123950;1099;104836;-77
2022/04/08 10:03:04;;;;;;;15.70;6.67;;;;;;;17.85;46.61;98814.74;123822;1099;104770;-78
2022/04/08 10:05:43;;;;;;;16.13;6.43;;;;;;;17.87;46.18;98823.56;123675;1099;104220;-78
2022/04/08 10:08:17;;;;;;;17.33;6.40;;;;;;;17.88;46.01;98827.98;124016;1099;104265;-78
2022/04/08 10:11:15;;;;;;;18.37;6.63;;;;;;;17.94;45.79;98830.50;124345;1099;104217;-78
2022/04/08 10:14:09;;;;;;;17.03;7.03;;;;;;;18.06;46.47;98821.42;124675;1099;104328;-77
2022/04/08 10:16:51;;;;;;;18.33;6.77;;;;;;;18.21;46.52;98824.64;125130;1099;104316;-78
2022/04/08 10:19:27;;;;;;;16.23;6.03;;;;;;;18.29;46.46;98834.20;124619;1099;104274;-79
2022/04/08 10:22:06;;;;;;;16.80;6.40;;;;;;;18.38;46.03;98838.41;124790;1099;104670;-80
2022/04/08 10:24:57;;;;;;;19.77;6.17;;;;;;;18.44;45.80;98842.71;124698;1099;104305;-79
2022/04/08 10:27:38;;;;;;;15.70;6.03;;;;;;;18.50;45.66;98835.47;124943;1099;102824;-79
2022/04/08 10:30:23;;;;;;;15.20;6.40;;;;;;;18.64;46.02;98831.62;125091;1099;104341;-78
2022/04/08 10:33:03;;;;;;;14.37;6.03;;;;;;;18.74;45.26;98826.95;124760;1099;104283;-79
2022/04/08 10:35:39;;;;;;;15.80;6.20;;;;;;;18.80;45.51;98817.05;125010;1099;104166;-79
2022/04/08 10:38:11;;;;;;;19.50;6.03;;;;;;;18.89;44.99;98831.07;124470;1099;104238;-77
2022/04/08 10:40:53;;;;;;;16.60;6.00;;;;;;;19.01;45.30;98846.68;124737;1099;104217;-78
2022/04/08 10:43:27;;;;;;;17.53;6.57;;;;;;;19.07;45.14;98856.30;124953;1099;104159;-80
2022/04/08 10:46:13;;;;;;;14.17;5.90;;;;;;;19.14;44.22;98849.92;124580;1099;104245;-77
2022/04/08 10:48:56;;;;;;;28.50;8.13;;;;;;;19.28;44.39;98855.75;124915;1099;104213;-77
2022/04/08 10:51:31;;;;;;;15.97;5.93;;;;;;;19.36;42.11;98856.41;124580;1099;104242;-76
2022/04/08 10:54:09;;;;;;;16.43;6.30;;;;;;;19.41;43.90;98845.66;124524;1099;104290;-78
2022/04/08 10:56:41;;;;;;;12.40;6.20;;;;;;;19.38;44.03;98853.71;124537;1099;104268;-78
2022/04/08 10:59:13;;;;;;;13.77;5.87;;;;;;;19.38;43.20;98859.03;124477;1099;104323;-77
2022/04/08 11:01:49;;;;;;;12.93;5.30;;;;;;;19.52;43.05;98859.53;124199;1099;104265;-77
2022/04/08 11:04:27;;;;;;;16.40;6.40;;;;;;;19.69;42.63;98856.41;124714;1098;104278;-78
2022/04/08 11:07:07;;;;;;;16.30;5.87;;;;;;;19.88;43.03;98855.93;124471;1099;104463;-77
2022/04/08 11:09:42;;;;;;;15.33;5.67;;;;;;;20.02;41.99;98858.20;124647;1099;104232;-77
2022/04/08 11:12:13;;;;;;;14.30;5.67;;;;;;;20.14;41.85;98855.17;124576;1099;104203;-77
2022/04/08 11:14:57;;;;;;;13.77;5.60;;;;;;;20.22;42.20;98839.83;124634;1099;104221;-77
2022/04/08 11:17:51;;;;;;;13.90;5.60;;;;;;;20.27;41.22;98845.02;124860;1099;104258;-77
2022/04/08 11:20:28;;;;;;;15.20;5.13;;;;;;;20.38;41.72;98847.36;124256;1098;104352;-77
2022/04/08 11:23:03;;;;;;;17.30;4.77;;;;;;;20.44;39.71;98848.06;124152;1099;104355;-77
2022/04/08 11:25:39;;;;;;;34.33;7.00;;;;;;;20.54;39.14;98855.77;123793;1099;104296;-77
2022/04/08 11:28:12;;;;;;;13.43;5.00;;;;;;;20.61;38.14;98865.30;123597;1100;104399;-76
2022/04/08 11:30:45;;;;;;;7.22;4.75;;;;;;;20.62;38.89;98856.39;123564;1099;102927;-77
2022/04/08 11:33:39;;;;;;;9.30;4.27;;;;;;;20.53;36.50;98852.21;124249;1099;102788;-76
2022/04/08 11:36:27;;;;;;;11.63;4.40;;;;;;;20.50;37.78;98851.45;124217;1099;107751;-77
2022/04/08 11:39:02;;;;;;;9.23;4.23;;;;;;;20.55;37.38;98844.17;124234;1099;104443;-76
2022/04/08 11:41:37;;;;;;;12.87;4.60;;;;;;;20.67;38.06;98846.48;124066;1099;104299;-77
2022/04/08 11:44:12;;;;;;;9.87;4.37;;;;;;;20.82;37.77;98837.99;123677;1102;104235;-77
2022/04/08 11:46:47;;;;;;;11.40;4.20;;;;;;;21.01;37.52;98845.39;123518;1099;117810;-78
2022/04/08 11:49:24;;;;;;;11.73;3.90;;;;;;;21.11;35.98;98852.13;123772;1099;104412;-78
2022/04/08 11:52:16;;;;;;;10.03;3.60;;;;;;;21.16;34.79;98851.98;123920;1099;104402;-77
2022/04/08 11:54:50;;;;;;;10.10;3.37;;;;;;;21.21;34.31;98862.49;123508;1102;105417;-78
2022/04/08 11:57:33;;;;;;;8.70;3.30;;;;;;;21.19;34.08;98846.55;124175;1102;104402;-77
2022/04/08 12:00:11;;;;;;;5.93;3.30;;;;;;;21.18;33.37;98837.68;124511;1102;104443;-77